Time;durP1;ratioP1;P1;durP2;ratioP2;P2;SDS_P1;SDS_P2;PMS_P1;PMS_P2;Temp;Humidity;BMP_temperature;BMP_pressure;BME280_temperature;BME280_humidity;BME280_pressure;Samples;Min_cycle;Max_cycle;Signal;HPM_P1;HPM_P2
2021/10/27 00:02:25;;;;;;;2.03;0.93;;;;;;;;;;5121271;27;20111;-46
2021/10/27 00:04:51;;;;;;;1.63;0.90;;;;;;;;;;5120591;27;20082;-46
2021/10/27 00:07:17;;;;;;;2.38;1.30;;;;;;;;;;5121403;27;20034;-46
2021/10/27 00:09:43;;;;;;;1.98;0.90;;;;;;;;;;5116264;27;20016;-46
2021/10/27 00:12:09;;;;;;;3.03;1.17;;;;;;;;;;5120332;27;20022;-47
2021/10/27 00:14:35;;;;;;;1.58;1.20;;;;;;;;;;5120126;27;20019;-48
2021/10/27 00:17:01;;;;;;;3.13;1.48;;;;;;;;;;5116932;27;20106;-48
2021/10/27 00:19:27;;;;;;;1.27;1.10;;;;;;;;;;5121963;27;20337;-47
2021/10/27 00:21:53;;;;;;;2.30;1.20;;;;;;;;;;5120673;27;20034;-47
2021/10/27 00:24:19;;;;;;;2.78;1.13;;;;;;;;;;5116443;27;20526;-47
2021/10/27 00:26:45;;;;;;;3.42;1.20;;;;;;;;;;5116311;27;20023;-48
2021/10/27 00:29:12;;;;;;;2.80;1.20;;;;;;;;;;5118740;27;20032;-47
2021/10/27 00:31:38;;;;;;;1.88;1.25;;;;;;;;;;5115448;27;20106;-47
2021/10/27 00:34:04;;;;;;;2.85;1.02;;;;;;;;;;5117795;27;20044;-49
2021/10/27 00:36:30;;;;;;;3.88;0.88;;;;;;;;;;5119555;27;20484;-45
2021/10/27 00:38:56;;;;;;;3.53;0.98;;;;;;;;;;5121770;27;20024;-48
2021/10/27 00:41:22;;;;;;;1.48;1.10;;;;;;;;;;5117444;27;20026;-47
2021/10/27 00:43:49;;;;;;;1.88;1.10;;;;;;;;;;5119939;27;20468;-47
2021/10/27 00:46:19;;;;;;;1.55;0.90;;;;;;;;;;5117668;27;20038;-49
2021/10/27 00:48:45;;;;;;;1.13;0.85;;;;;;;;;;5118296;27;20102;-48
2021/10/27 00:51:11;;;;;;;2.83;1.15;;;;;;;;;;5117175;27;20019;-47
2021/10/27 00:53:39;;;;;;;1.65;0.90;;;;;;;;;;5116932;27;20035;-47
2021/10/27 00:56:05;;;;;;;3.22;1.30;;;;;;;;;;5118215;27;20071;-48
2021/10/27 00:58:31;;;;;;;1.60;1.00;;;;;;;;;;5104946;27;20027;-46
2021/10/27 01:01:04;;;;;;;1.77;1.17;;;;;;;;;;5117101;27;20015;-48
2021/10/27 01:03:32;;;;;;;2.13;1.00;;;;;;;;;;5113415;27;20022;-47
2021/10/27 01:05:58;;;;;;;2.10;1.00;;;;;;;;;;5117428;27;20028;-49
2021/10/27 01:08:24;;;;;;;1.75;1.17;;;;;;;;;;5119688;27;20024;-47
2021/10/27 01:10:50;;;;;;;1.35;1.00;;;;;;;;;;5119273;27;20379;-47
2021/10/27 01:13:16;;;;;;;1.67;1.00;;;;;;;;;;5117619;27;20038;-47
2021/10/27 01:15:42;;;;;;;1.02;0.80;;;;;;;;;;5115308;27;20410;-47
2021/10/27 01:18:09;;;;;;;1.45;1.00;;;;;;;;;;5118499;27;20051;-47
2021/10/27 01:20:36;;;;;;;1.45;1.00;;;;;;;;;;5115529;27;20023;-46
2021/10/27 01:23:02;;;;;;;2.13;1.10;;;;;;;;;;5119658;27;20491;-47
2021/10/27 01:25:28;;;;;;;3.55;1.15;;;;;;;;;;5114483;27;20015;-47
2021/10/27 01:27:56;;;;;;;2.58;1.42;;;;;;;;;;5117852;27;20069;-46
2021/10/27 01:30:22;;;;;;;1.95;1.10;;;;;;;;;;5094180;27;20084;-48
2021/10/27 01:32:50;;;;;;;2.90;1.20;;;;;;;;;;5113344;27;20461;-47
2021/10/27 01:35:16;;;;;;;2.55;0.98;;;;;;;;;;5114683;27;20452;-47
2021/10/27 01:37:43;;;;;;;2.40;1.27;;;;;;;;;;5120721;27;20413;-47
2021/10/27 01:40:11;;;;;;;1.40;0.73;;;;;;;;;;5132146;27;20023;-47
2021/10/27 01:42:37;;;;;;;1.63;1.15;;;;;;;;;;5119310;27;20028;-46
2021/10/27 01:45:04;;;;;;;2.35;0.80;;;;;;;;;;5119226;27;20015;-47
2021/10/27 01:47:30;;;;;;;1.30;0.80;;;;;;;;;;5128823;27;20034;-48
2021/10/27 01:49:57;;;;;;;1.83;1.30;;;;;;;;;;5112590;28;20090;-47
2021/10/27 01:52:23;;;;;;;1.77;1.02;;;;;;;;;;5120482;27;20024;-47
2021/10/27 01:54:49;;;;;;;1.23;0.93;;;;;;;;;;5110695;28;20023;-47
2021/10/27 01:57:15;;;;;;;0.98;0.80;;;;;;;;;;5113367;28;20034;-48
2021/10/27 01:59:41;;;;;;;4.22;1.73;;;;;;;;;;5112459;28;20020;-47
2021/10/27 02:02:07;;;;;;;1.27;0.93;;;;;;;;;;5111653;28;20076;-46
2021/10/27 02:04:33;;;;;;;2.15;1.25;;;;;;;;;;5128240;28;20023;-47
2021/10/27 02:07:03;;;;;;;1.48;0.93;;;;;;;;;;5131948;28;20031;-47
2021/10/27 02:09:31;;;;;;;1.45;0.80;;;;;;;;;;5111747;28;20393;-48
2021/10/27 02:11:58;;;;;;;2.17;1.00;;;;;;;;;;5119198;28;20114;-46
2021/10/27 02:14:24;;;;;;;1.88;1.00;;;;;;;;;;5132005;28;20030;-47
2021/10/27 02:16:50;;;;;;;1.77;1.20;;;;;;;;;;5132318;28;20034;-46
2021/10/27 02:19:16;;;;;;;1.13;0.90;;;;;;;;;;5127130;28;20027;-47
2021/10/27 02:21:42;;;;;;;1.73;1.10;;;;;;;;;;5116953;28;20098;-47
2021/10/27 02:24:08;;;;;;;1.27;0.98;;;;;;;;;;5123594;28;20104;-47
2021/10/27 02:26:34;;;;;;;2.33;1.30;;;;;;;;;;5112041;28;20023;-49
2021/10/27 02:29:06;;;;;;;1.85;1.30;;;;;;;;;;5127129;28;20023;-50
2021/10/27 02:31:32;;;;;;;1.67;1.00;;;;;;;;;;5107552;28;20398;-46
2021/10/27 02:33:59;;;;;;;1.75;0.82;;;;;;;;;;5111895;28;20126;-47
2021/10/27 02:36:26;;;;;;;1.65;0.80;;;;;;;;;;5116255;28;20050;-47
2021/10/27 02:38:52;;;;;;;2.03;1.00;;;;;;;;;;5125791;28;20079;-47
2021/10/27 02:41:18;;;;;;;4.22;1.70;;;;;;;;;;5131397;28;20094;-46
2021/10/27 02:43:45;;;;;;;1.98;1.15;;;;;;;;;;5132103;28;20011;-47
2021/10/27 02:46:12;;;;;;;2.80;1.02;;;;;;;;;;5131261;28;20019;-47
2021/10/27 02:48:38;;;;;;;1.05;0.90;;;;;;;;;;5119886;28;20486;-47
2021/10/27 02:51:05;;;;;;;1.20;0.80;;;;;;;;;;5112639;28;20019;-49
2021/10/27 02:53:31;;;;;;;1.20;0.90;;;;;;;;;;5116652;28;20027;-48
2021/10/27 02:55:57;;;;;;;1.77;0.90;;;;;;;;;;5115808;28;20076;-46
2021/10/27 02:58:23;;;;;;;2.08;1.13;;;;;;;;;;5115999;27;20058;-47
2021/10/27 03:00:49;;;;;;;1.05;0.93;;;;;;;;;;5115633;27;20449;-47
2021/10/27 03:03:15;;;;;;;1.90;0.90;;;;;;;;;;5123816;27;20019;-46
2021/10/27 03:05:41;;;;;;;2.65;1.17;;;;;;;;;;5135476;27;20511;-47
2021/10/27 03:08:07;;;;;;;1.45;1.00;;;;;;;;;;5128501;27;20409;-48
2021/10/27 03:10:33;;;;;;;1.45;1.02;;;;;;;;;;5115463;28;20356;-48
2021/10/27 03:12:59;;;;;;;1.33;0.90;;;;;;;;;;5115389;28;20023;-46
2021/10/27 03:15:25;;;;;;;1.77;0.90;;;;;;;;;;5114788;28;20028;-47
2021/10/27 03:17:52;;;;;;;2.03;1.20;;;;;;;;;;5120361;27;20471;-47
2021/10/27 03:20:18;;;;;;;3.35;0.90;;;;;;;;;;5130729;27;20061;-47
2021/10/27 03:22:44;;;;;;;2.08;1.20;;;;;;;;;;5125170;27;20020;-47
2021/10/27 03:25:11;;;;;;;2.15;0.85;;;;;;;;;;5113905;28;20452;-49
2021/10/27 03:27:37;;;;;;;1.92;1.23;;;;;;;;;;5117229;27;20031;-46
2021/10/27 03:30:09;;;;;;;1.60;1.00;;;;;;;;;;5133635;27;20406;-48
2021/10/27 03:32:35;;;;;;;1.10;0.90;;;;;;;;;;5115084;28;20043;-49
2021/10/27 03:35:01;;;;;;;1.73;1.17;;;;;;;;;;5114844;27;20026;-47
2021/10/27 03:37:27;;;;;;;1.73;1.13;;;;;;;;;;5130046;27;20078;-48
2021/10/27 03:39:53;;;;;;;1.17;0.98;;;;;;;;;;5114663;28;20023;-49
2021/10/27 03:42:20;;;;;;;2.15;1.10;;;;;;;;;;5095829;28;20333;-47
2021/10/27 03:44:46;;;;;;;1.65;1.00;;;;;;;;;;5114850;28;20438;-48
2021/10/27 03:47:12;;;;;;;1.45;1.13;;;;;;;;;;5114053;28;20023;-47
2021/10/27 03:49:38;;;;;;;1.98;1.40;;;;;;;;;;5132032;27;20031;-48
2021/10/27 03:52:04;;;;;;;1.25;1.00;;;;;;;;;;5124034;27;20031;-47
2021/10/27 03:54:30;;;;;;;1.38;1.10;;;;;;;;;;5113878;28;20475;-46
2021/10/27 03:56:57;;;;;;;1.48;1.10;;;;;;;;;;5124044;27;20067;-47
2021/10/27 03:59:23;;;;;;;1.45;1.10;;;;;;;;;;5118633;27;20034;-49
2021/10/27 04:01:49;;;;;;;1.50;1.00;;;;;;;;;;5114474;27;20027;-46
2021/10/27 04:04:15;;;;;;;1.45;1.00;;;;;;;;;;5113209;28;20487;-48
2021/10/27 04:06:41;;;;;;;1.95;1.50;;;;;;;;;;5114037;27;20031;-47
2021/10/27 04:09:07;;;;;;;1.30;1.00;;;;;;;;;;5115221;27;20028;-48
2021/10/27 04:11:33;;;;;;;2.13;1.13;;;;;;;;;;5119692;27;20011;-47
2021/10/27 04:14:00;;;;;;;1.67;1.35;;;;;;;;;;5125352;27;20448;-47
2021/10/27 04:16:26;;;;;;;2.17;1.30;;;;;;;;;;5120362;27;20018;-46
2021/10/27 04:18:51;;;;;;;2.08;1.27;;;;;;;;;;5134444;27;20035;-47
2021/10/27 04:21:18;;;;;;;1.45;0.95;;;;;;;;;;5121293;27;20031;-46
2021/10/27 04:23:44;;;;;;;2.13;1.13;;;;;;;;;;5121628;27;20471;-46
2021/10/27 04:26:10;;;;;;;2.55;1.10;;;;;;;;;;5117572;27;20019;-47
2021/10/27 04:28:36;;;;;;;1.45;1.15;;;;;;;;;;5134698;27;20025;-47
2021/10/27 04:31:02;;;;;;;1.75;1.20;;;;;;;;;;5131265;27;20032;-46
2021/10/27 04:33:29;;;;;;;2.85;1.33;;;;;;;;;;5129680;27;20058;-49
2021/10/27 04:35:55;;;;;;;1.92;1.23;;;;;;;;;;5129441;27;21697;-50
2021/10/27 04:38:22;;;;;;;1.08;0.90;;;;;;;;;;5114014;27;20114;-48
2021/10/27 04:40:48;;;;;;;3.22;1.48;;;;;;;;;;5120618;27;20027;-47
2021/10/27 04:43:15;;;;;;;1.40;1.00;;;;;;;;;;5120006;27;20106;-49
2021/10/27 04:45:41;;;;;;;2.13;1.13;;;;;;;;;;5100244;27;20030;-51
2021/10/27 04:48:07;;;;;;;1.58;1.10;;;;;;;;;;5117936;27;20098;-48
2021/10/27 04:50:34;;;;;;;1.95;1.30;;;;;;;;;;5115438;27;20023;-51
2021/10/27 04:53:00;;;;;;;1.50;1.35;;;;;;;;;;5117122;27;20479;-49
2021/10/27 04:55:27;;;;;;;1.63;1.27;;;;;;;;;;5118936;27;20023;-47
2021/10/27 04:57:53;;;;;;;3.10;1.55;;;;;;;;;;5115898;27;20028;-49
2021/10/27 05:00:19;;;;;;;1.50;1.10;;;;;;;;;;5117424;27;20096;-47
2021/10/27 05:02:45;;;;;;;1.27;1.00;;;;;;;;;;5118048;27;20076;-48
2021/10/27 05:05:11;;;;;;;2.85;1.17;;;;;;;;;;5113931;27;20476;-49
2021/10/27 05:07:43;;;;;;;1.55;1.30;;;;;;;;;;5119574;27;20039;-48
2021/10/27 05:10:10;;;;;;;2.72;1.45;;;;;;;;;;5119306;27;20570;-49
2021/10/27 05:12:36;;;;;;;1.73;1.02;;;;;;;;;;5115808;27;20469;-47
2021/10/27 05:15:03;;;;;;;1.98;1.20;;;;;;;;;;5112746;28;20023;-47
2021/10/27 05:17:29;;;;;;;2.58;1.13;;;;;;;;;;5121551;27;20019;-47
2021/10/27 05:19:55;;;;;;;1.40;1.08;;;;;;;;;;5124849;27;20081;-47
2021/10/27 05:22:21;;;;;;;1.23;1.00;;;;;;;;;;5112100;27;20094;-49
2021/10/27 05:24:47;;;;;;;1.65;1.13;;;;;;;;;;5112790;28;20016;-50
2021/10/27 05:27:15;;;;;;;1.25;1.15;;;;;;;;;;5119970;27;20379;-47
2021/10/27 05:29:41;;;;;;;4.07;1.10;;;;;;;;;;5132900;27;20102;-49
2021/10/27 05:32:11;;;;;;;1.45;1.25;;;;;;;;;;5132664;27;20476;-49
2021/10/27 05:34:38;;;;;;;2.15;1.10;;;;;;;;;;5122750;27;20032;-46
2021/10/27 05:37:04;;;;;;;2.30;1.13;;;;;;;;;;5121215;27;20120;-49
2021/10/27 05:39:31;;;;;;;1.23;1.10;;;;;;;;;;5132070;27;20096;-47
2021/10/27 05:41:58;;;;;;;2.78;1.40;;;;;;;;;;5113192;27;20053;-49
2021/10/27 05:44:24;;;;;;;4.55;1.20;;;;;;;;;;5119647;27;20065;-47
2021/10/27 05:46:51;;;;;;;3.40;1.27;;;;;;;;;;5129016;27;20406;-48
2021/10/27 05:51:55;;;;;;;1.95;1.10;;;;;;;;;;5121595;28;20091;-46
2021/10/27 05:57:08;;;;;;;3.17;1.48;;;;;;;;;;5130414;27;20089;-48
2021/10/27 05:59:34;;;;;;;4.65;1.23;;;;;;;;;;5132666;28;20015;-47
2021/10/27 06:02:01;;;;;;;7.57;2.03;;;;;;;;;;5132194;28;20033;-45
2021/10/27 06:04:27;;;;;;;3.20;1.40;;;;;;;;;;5111884;28;20084;-46
2021/10/27 06:06:53;;;;;;;7.13;1.75;;;;;;;;;;5128780;28;20534;-46
2021/10/27 06:09:19;;;;;;;3.22;1.63;;;;;;;;;;5126071;28;20051;-47
2021/10/27 06:11:45;;;;;;;8.48;1.60;;;;;;;;;;5130365;28;20024;-49
2021/10/27 06:14:12;;;;;;;3.75;1.33;;;;;;;;;;5131683;28;20026;-48
2021/10/27 06:16:39;;;;;;;4.93;1.10;;;;;;;;;;5130421;28;20034;-47
2021/10/27 06:19:05;;;;;;;2.92;1.23;;;;;;;;;;5120175;28;20024;-48
2021/10/27 06:21:33;;;;;;;6.25;1.25;;;;;;;;;;5117424;28;20023;-47
2021/10/27 06:23:59;;;;;;;4.53;1.98;;;;;;;;;;5112439;28;20012;-48
2021/10/27 06:26:25;;;;;;;3.33;1.58;;;;;;;;;;5110723;28;20471;-47
2021/10/27 06:29:03;;;;;;;7.38;1.48;;;;;;;;;;5124793;27;20023;-47
2021/10/27 06:31:40;;;;;;;2.95;1.35;;;;;;;;;;5135771;27;20022;-46
2021/10/27 06:47:26;;;;;;;6.72;3.40;;;;;;;;;;5134434;27;20429;-47
2021/10/27 06:49:52;;;;;;;6.63;3.53;;;;;;;;;;5136419;27;20041;-48
2021/10/27 06:52:18;;;;;;;5.85;3.53;;;;;;;;;;5120407;27;20027;-46
2021/10/27 06:54:49;;;;;;;4.70;3.75;;;;;;;;;;5123235;27;20023;-48
2021/10/27 06:57:18;;;;;;;5.43;3.83;;;;;;;;;;5134786;27;20039;-54
2021/10/27 06:59:45;;;;;;;5.00;3.20;;;;;;;;;;5112306;27;20579;-51
2021/10/27 07:05:00;;;;;;;3.10;2.35;;;;;;;;;;5124280;27;20368;-52
2021/10/27 07:15:40;;;;;;;6.20;2.22;;;;;;;;;;5116424;27;20064;-55
2021/10/27 07:18:06;;;;;;;4.70;2.80;;;;;;;;;;5121757;27;20065;-53
2021/10/27 07:20:33;;;;;;;6.18;2.42;;;;;;;;;;5129131;27;20039;-55
2021/10/27 07:23:02;;;;;;;4.65;2.15;;;;;;;;;;5115058;28;20031;-55
2021/10/27 07:25:32;;;;;;;3.50;2.30;;;;;;;;;;5114299;28;20066;-54
2021/10/27 07:27:58;;;;;;;4.28;2.17;;;;;;;;;;5121380;27;20022;-55
2021/10/27 07:30:25;;;;;;;3.25;2.20;;;;;;;;;;5115266;27;20016;-55
2021/10/27 07:32:56;;;;;;;4.10;2.20;;;;;;;;;;5120425;27;20039;-54
2021/10/27 07:35:42;;;;;;;4.07;2.72;;;;;;;;;;5113589;28;20054;-54
2021/10/27 07:40:54;;;;;;;3.95;1.90;;;;;;;;;;5134038;27;20035;-55
2021/10/27 07:43:23;;;;;;;3.95;2.30;;;;;;;;;;5121671;27;20363;-56
2021/10/27 07:45:49;;;;;;;3.97;1.88;;;;;;;;;;5134876;27;20019;-56
2021/10/27 07:48:17;;;;;;;2.90;2.00;;;;;;;;;;5130424;27;20051;-56
2021/10/27 07:50:43;;;;;;;4.30;1.60;;;;;;;;;;5114705;28;20102;-52
2021/10/27 07:53:11;;;;;;;4.88;2.45;;;;;;;;;;5128788;27;20015;-51
2021/10/27 07:55:40;;;;;;;6.35;1.90;;;;;;;;;;5120160;27;20023;-51
2021/10/27 07:58:06;;;;;;;3.95;2.33;;;;;;;;;;5134771;27;20030;-49
2021/10/27 08:00:33;;;;;;;4.38;2.25;;;;;;;;;;5127247;27;20552;-49
2021/10/27 08:03:03;;;;;;;4.07;2.10;;;;;;;;;;5114345;27;20027;-52
2021/10/27 08:05:30;;;;;;;2.45;1.90;;;;;;;;;;5120529;27;20079;-53
2021/10/27 08:07:57;;;;;;;2.20;1.58;;;;;;;;;;5134646;27;20471;-51
2021/10/27 08:10:25;;;;;;;3.17;1.92;;;;;;;;;;5132201;27;20019;-53
2021/10/27 08:12:51;;;;;;;3.03;2.05;;;;;;;;;;5131677;27;20015;-51
2021/10/27 08:15:20;;;;;;;3.92;1.77;;;;;;;;;;5132366;27;20094;-54
2021/10/27 08:17:47;;;;;;;3.42;2.00;;;;;;;;;;5119083;27;20080;-52
2021/10/27 08:20:18;;;;;;;2.63;1.92;;;;;;;;;;5117002;27;20111;-54
2021/10/27 08:22:47;;;;;;;2.50;1.90;;;;;;;;;;5121832;27;20157;-51
2021/10/27 08:25:20;;;;;;;2.40;1.63;;;;;;;;;;5116523;27;20464;-53
2021/10/27 08:27:46;;;;;;;2.08;1.55;;;;;;;;;;5119276;27;20490;-53
2021/10/27 08:30:14;;;;;;;3.28;2.20;;;;;;;;;;5114861;27;20023;-54
2021/10/27 08:32:49;;;;;;;2.35;1.50;;;;;;;;;;5115579;27;20015;-51
2021/10/27 08:35:15;;;;;;;5.10;2.28;;;;;;;;;;5115580;27;20422;-56
2021/10/27 08:37:43;;;;;;;4.13;1.92;;;;;;;;;;5133467;27;20054;-54
2021/10/27 08:40:10;;;;;;;2.45;1.50;;;;;;;;;;5127471;27;20035;-52
2021/10/27 08:42:36;;;;;;;3.50;1.95;;;;;;;;;;5122792;27;20027;-53
2021/10/27 08:45:02;;;;;;;3.50;1.58;;;;;;;;;;5126649;27;20019;-51
2021/10/27 08:47:28;;;;;;;2.58;1.73;;;;;;;;;;5129584;27;20027;-52
2021/10/27 08:49:55;;;;;;;3.03;1.85;;;;;;;;;;5113264;28;20024;-52
2021/10/27 08:52:23;;;;;;;3.40;2.13;;;;;;;;;;5125190;27;20023;-54
2021/10/27 08:54:49;;;;;;;2.03;1.60;;;;;;;;;;5127430;27;20103;-51
2021/10/27 08:57:21;;;;;;;2.80;1.92;;;;;;;;;;5124451;27;20011;-56
2021/10/27 09:00:00;;;;;;;3.05;1.85;;;;;;;;;;5133426;27;20027;-53
2021/10/27 09:05:08;;;;;;;3.33;1.80;;;;;;;;;;5113648;27;20461;-52
2021/10/27 09:14:22;;;;;;;2.60;2.05;;;;;;;;;;5133145;27;20363;-52
2021/10/27 09:33:32;;;;;;;3.22;2.00;;;;;;;;;;5132935;27;20031;-55
2021/10/27 09:34:00;;;;;;;2.60;1.75;;;;;;;;;;5119295;27;20081;-54
2021/10/27 09:36:49;;;;;;;2.85;1.85;;;;;;;;;;5116518;27;20038;-51
2021/10/27 09:56:10;;;;;;;3.05;2.25;;;;;;;;;;5128131;27;20070;-53
2021/10/27 10:04:06;;;;;;;2.70;2.05;;;;;;;;;;5131947;27;20027;-51
2021/10/27 10:06:35;;;;;;;2.72;1.83;;;;;;;;;;5117750;28;20367;-55
2021/10/27 10:09:02;;;;;;;5.72;2.40;;;;;;;;;;5123802;28;20051;-53
2021/10/27 10:11:28;;;;;;;2.97;1.70;;;;;;;;;;5120070;28;20038;-52
2021/10/27 10:13:55;;;;;;;2.78;2.03;;;;;;;;;;5119009;28;20034;-55
2021/10/27 10:16:24;;;;;;;3.88;1.95;;;;;;;;;;5131102;28;20433;-56
2021/10/27 10:18:50;;;;;;;3.65;1.70;;;;;;;;;;5131921;28;20506;-53
2021/10/27 10:21:26;;;;;;;2.00;1.67;;;;;;;;;;5118312;28;20035;-54
2021/10/27 10:24:12;;;;;;;2.00;1.60;;;;;;;;;;5112089;28;20020;-56
2021/10/27 10:26:39;;;;;;;2.85;1.85;;;;;;;;;;5111722;28;20102;-51
2021/10/27 10:29:05;;;;;;;2.25;1.50;;;;;;;;;;5111869;28;20111;-55
2021/10/27 10:31:32;;;;;;;3.25;2.03;;;;;;;;;;5110802;28;20012;-55
2021/10/27 10:34:05;;;;;;;2.47;1.75;;;;;;;;;;5111896;28;20053;-54
2021/10/27 10:36:34;;;;;;;3.88;1.45;;;;;;;;;;5118208;28;20050;-55
2021/10/27 10:41:53;;;;;;;2.80;1.80;;;;;;;;;;5111042;28;20371;-51
2021/10/27 10:44:41;;;;;;;2.30;1.80;;;;;;;;;;5131578;28;20027;-53
2021/10/27 11:01:53;;;;;;;2.03;1.58;;;;;;;;;;5112766;28;20380;-53
2021/10/27 11:37:42;;;;;;;2.58;1.80;;;;;;;;;;5124502;27;20039;-51
2021/10/27 11:40:21;;;;;;;3.85;1.90;;;;;;;;;;5116210;27;20026;-53
2021/10/27 11:42:50;;;;;;;3.33;1.65;;;;;;;;;;5131384;27;20023;-50
2021/10/27 11:45:36;;;;;;;3.25;1.92;;;;;;;;;;5118848;27;20032;-50
2021/10/27 11:50:48;;;;;;;1.98;1.35;;;;;;;;;;5127739;27;20038;-52
2021/10/27 11:53:22;;;;;;;1.73;1.63;;;;;;;;;;5112987;27;20069;-50
2021/10/27 11:55:48;;;;;;;1.75;1.38;;;;;;;;;;5134339;27;20034;-53
2021/10/27 11:58:14;;;;;;;1.65;1.52;;;;;;;;;;5133620;27;20524;-54
2021/10/27 12:00:43;;;;;;;1.50;1.40;;;;;;;;;;5120798;27;20023;-52
2021/10/27 12:03:23;;;;;;;2.15;1.48;;;;;;;;;;5121071;27;20040;-51
2021/10/27 12:13:50;;;;;;;2.45;1.30;;;;;;;;;;5113292;28;20031;-50
2021/10/27 12:16:33;;;;;;;2.08;1.30;;;;;;;;;;5113996;28;20019;-53
2021/10/27 12:19:00;;;;;;;;;;;;;;;;;;5114099;27;20020;-51
2021/10/27 12:21:33;;;;;;;1.67;1.42;;;;;;;;;;5120346;27;20292;-55
2021/10/27 12:24:02;;;;;;;1.73;1.40;;;;;;;;;;5115055;27;20023;-53
2021/10/27 12:26:59;;;;;;;2.00;1.45;;;;;;;;;;5119156;27;20091;-56
2021/10/27 12:29:29;;;;;;;2.38;1.35;;;;;;;;;;5102760;27;20035;-53
2021/10/27 12:32:14;;;;;;;1.15;0.95;;;;;;;;;;5113567;28;20027;-54
2021/10/27 12:35:03;;;;;;;1.80;1.13;;;;;;;;;;5117379;27;20094;-53
2021/10/27 12:40:09;;;;;;;1.58;1.10;;;;;;;;;;5114561;27;20080;-54
2021/10/27 12:42:36;;;;;;;2.10;1.13;;;;;;;;;;5125235;27;20053;-51
2021/10/27 12:45:04;;;;;;;2.67;1.38;;;;;;;;;;5116638;27;20047;-52
2021/10/27 12:47:39;;;;;;;1.30;1.08;;;;;;;;;;5121276;27;20023;-55
2021/10/27 12:50:15;;;;;;;1.67;1.02;;;;;;;;;;5121752;27;20040;-53
2021/10/27 12:52:51;;;;;;;1.38;1.10;;;;;;;;;;5129227;27;20508;-51
2021/10/27 12:55:19;;;;;;;1.33;1.00;;;;;;;;;;5113151;28;20364;-52
2021/10/27 12:57:53;;;;;;;2.25;1.20;;;;;;;;;;5130419;27;20425;-50
2021/10/27 13:00:23;;;;;;;1.38;1.05;;;;;;;;;;5132969;27;20019;-54
2021/10/27 13:03:11;;;;;;;2.05;1.10;;;;;;;;;;5112211;28;20030;-51
2021/10/27 13:05:43;;;;;;;1.63;1.40;;;;;;;;;;5115531;27;20050;-51
2021/10/27 13:08:32;;;;;;;;;;;;;;;;;;5116711;27;20464;-54
2021/10/27 13:14:03;;;;;;;1.75;1.10;;;;;;;;;;5064165;28;20492;-51
2021/10/27 13:22:24;;;;;;;3.15;1.33;;;;;;;;;;5118738;27;19900;-50
2021/10/27 13:30:11;;;;;;;2.58;1.40;;;;;;;;;;5120598;27;20052;-52
2021/10/27 13:32:42;;;;;;;4.45;1.08;;;;;;;;;;5119802;27;20012;-53
2021/10/27 13:35:09;;;;;;;1.10;1.00;;;;;;;;;;5112094;28;20131;-49
2021/10/27 13:37:35;;;;;;;1.25;1.08;;;;;;;;;;5124599;27;20289;-50
2021/10/27 13:40:03;;;;;;;1.23;0.90;;;;;;;;;;5132847;27;20104;-50
2021/10/27 13:42:36;;;;;;;1.80;1.30;;;;;;;;;;5127095;27;20034;-51
2021/10/27 14:07:03;;;;;;;1.13;0.90;;;;;;;;;;5131594;28;20088;-52
2021/10/27 14:12:43;;;;;;;1.95;1.40;;;;;;;;;;5124328;28;20563;-51
2021/10/27 14:23:07;;;;;;;3.03;1.13;;;;;;;;;;5131258;28;20030;-56
2021/10/27 15:23:28;;;;;;;1.60;0.90;;;;;;;;;;5134583;27;20460;-55
2021/10/27 15:33:27;;;;;;;1.95;1.10;;;;;;;;;;5135137;27;20118;-53
2021/10/27 15:44:08;;;;;;;2.63;1.00;;;;;;;;;;5118409;27;20023;-51
2021/10/27 15:52:10;;;;;;;5.80;1.80;;;;;;;;;;5128447;27;20045;-50
2021/10/27 15:54:36;;;;;;;4.55;1.45;;;;;;;;;;5134448;27;20471;-50
2021/10/27 15:57:02;;;;;;;2.28;1.15;;;;;;;;;;5133283;27;20483;-50
2021/10/27 15:59:29;;;;;;;2.83;0.88;;;;;;;;;;5118689;27;20054;-49
2021/10/27 16:01:55;;;;;;;4.40;1.25;;;;;;;;;;5121489;27;20452;-54
2021/10/27 16:04:21;;;;;;;6.50;1.40;;;;;;;;;;5114286;28;20027;-54
2021/10/27 16:06:51;;;;;;;5.38;1.38;;;;;;;;;;5095409;28;20521;-54
2021/10/27 16:09:18;;;;;;;2.63;0.80;;;;;;;;;;5119446;27;20022;-52
2021/10/27 16:11:44;;;;;;;2.60;1.10;;;;;;;;;;5100763;28;20023;-52
2021/10/27 16:14:12;;;;;;;4.22;1.30;;;;;;;;;;5114198;28;20102;-54
2021/10/27 16:16:44;;;;;;;2.80;1.15;;;;;;;;;;5115044;27;20019;-53
2021/10/27 16:19:10;;;;;;;1.45;1.02;;;;;;;;;;5114223;28;20422;-51
2021/10/27 16:21:37;;;;;;;4.20;1.08;;;;;;;;;;5123620;27;20403;-53
2021/10/27 16:24:03;;;;;;;6.10;1.27;;;;;;;;;;5134009;27;20019;-54
2021/10/27 16:26:29;;;;;;;4.45;1.35;;;;;;;;;;5133639;27;20413;-50
2021/10/27 16:28:56;;;;;;;4.57;1.23;;;;;;;;;;5119841;27;20465;-54
2021/10/27 16:31:22;;;;;;;2.15;0.90;;;;;;;;;;5126843;27;20047;-54
2021/10/27 16:33:49;;;;;;;3.92;1.35;;;;;;;;;;5120662;27;20367;-53
2021/10/27 16:36:15;;;;;;;5.68;1.58;;;;;;;;;;5128868;27;20452;-52
2021/10/27 16:38:42;;;;;;;5.55;1.38;;;;;;;;;;5113010;28;20028;-57
2021/10/27 16:41:09;;;;;;;3.53;1.30;;;;;;;;;;5117313;27;20020;-54
2021/10/27 16:43:36;;;;;;;4.40;1.02;;;;;;;;;;5126475;27;20015;-55
2021/10/27 16:46:02;;;;;;;3.30;1.08;;;;;;;;;;5122033;27;20031;-50
2021/10/27 16:48:28;;;;;;;2.97;1.33;;;;;;;;;;5117762;27;20022;-50
2021/10/27 16:50:54;;;;;;;4.70;1.38;;;;;;;;;;5126847;27;20106;-55
2021/10/27 16:53:21;;;;;;;3.75;1.30;;;;;;;;;;5124222;27;20016;-52
2021/10/27 16:55:48;;;;;;;4.57;1.83;;;;;;;;;;5115774;27;20102;-54
2021/10/27 16:58:14;;;;;;;5.25;1.23;;;;;;;;;;5127716;27;20036;-53
2021/10/27 17:00:46;;;;;;;1.92;1.45;;;;;;;;;;5113045;28;20448;-55
2021/10/27 17:03:13;;;;;;;4.78;1.40;;;;;;;;;;5114028;27;20030;-50
2021/10/27 17:05:46;;;;;;;5.45;1.50;;;;;;;;;;5113409;27;20019;-56
2021/10/27 17:08:16;;;;;;;5.88;1.80;;;;;;;;;;5113142;27;20035;-51
2021/10/27 17:10:47;;;;;;;3.65;1.40;;;;;;;;;;5128970;27;20035;-55
2021/10/27 17:13:14;;;;;;;6.00;1.75;;;;;;;;;;5127508;27;20068;-51
2021/10/27 17:15:47;;;;;;;10.20;1.98;;;;;;;;;;5133184;27;20030;-56
2021/10/27 17:18:14;;;;;;;3.60;1.00;;;;;;;;;;5133586;27;20353;-55
2021/10/27 17:20:47;;;;;;;3.95;1.48;;;;;;;;;;5126688;27;21527;-55
2021/10/27 17:23:27;;;;;;;3.15;1.27;;;;;;;;;;5120385;27;20019;-50
2021/10/27 17:25:53;;;;;;;3.55;1.20;;;;;;;;;;5132476;27;20015;-55
2021/10/27 17:28:19;;;;;;;6.00;1.25;;;;;;;;;;5132952;27;20019;-50
2021/10/27 17:30:47;;;;;;;2.78;1.52;;;;;;;;;;5118627;27;20059;-52
2021/10/27 17:33:14;;;;;;;2.25;1.30;;;;;;;;;;5119791;27;20383;-49
2021/10/27 17:35:40;;;;;;;5.75;1.45;;;;;;;;;;5125535;27;20039;-51
2021/10/27 17:38:06;;;;;;;2.75;1.35;;;;;;;;;;5113217;27;20169;-50
2021/10/27 17:40:53;;;;;;;2.75;1.20;;;;;;;;;;5112734;28;20148;-51
2021/10/27 17:43:19;;;;;;;3.88;1.38;;;;;;;;;;5111844;28;20119;-50
2021/10/27 17:45:45;;;;;;;2.28;1.00;;;;;;;;;;5111954;28;20026;-55
2021/10/27 17:48:21;;;;;;;4.78;1.17;;;;;;;;;;5119580;27;20035;-52
2021/10/27 17:58:38;;;;;;;3.55;1.30;;;;;;;;;;5132313;27;20050;-53
2021/10/27 18:01:08;;;;;;;2.38;1.55;;;;;;;;;;5114598;27;20640;-52
2021/10/27 18:03:36;;;;;;;3.70;1.40;;;;;;;;;;5112066;28;20065;-55
2021/10/27 18:06:07;;;;;;;5.70;1.60;;;;;;;;;;5118062;28;20106;-53
2021/10/27 18:08:34;;;;;;;7.53;1.27;;;;;;;;;;5117633;28;20071;-55
2021/10/27 18:11:03;;;;;;;3.50;1.55;;;;;;;;;;5127705;28;20019;-53
2021/10/27 18:13:32;;;;;;;9.70;1.88;;;;;;;;;;5132103;28;20033;-54
2021/10/27 18:16:22;;;;;;;3.95;1.00;;;;;;;;;;5126007;28;20024;-56
2021/10/27 18:21:42;;;;;;;5.50;2.25;;;;;;;;;;5118190;28;20055;-49
2021/10/27 18:43:13;;;;;;;3.17;1.40;;;;;;;;;;5126531;27;20030;-54
2021/10/27 18:45:41;;;;;;;2.85;1.25;;;;;;;;;;5133978;27;20026;-54
2021/10/27 18:48:07;;;;;;;6.60;1.33;;;;;;;;;;5114788;28;20561;-55
2021/10/27 18:58:38;;;;;;;2.13;1.40;;;;;;;;;;5115607;28;20084;-55
2021/10/27 19:12:21;;;;;;;10.77;1.85;;;;;;;;;;5114703;27;20039;-56
2021/10/27 19:17:17;;;;;;;3.88;1.50;;;;;;;;;;5131472;27;20040;-57
2021/10/27 19:19:43;;;;;;;3.65;1.30;;;;;;;;;;5119589;27;20016;-56
2021/10/27 19:22:09;;;;;;;2.33;1.40;;;;;;;;;;5122238;27;20080;-56
2021/10/27 19:27:18;;;;;;;4.97;1.50;;;;;;;;;;5081239;27;20160;-57
2021/10/27 19:29:56;;;;;;;8.30;2.22;;;;;;;;;;5118489;27;20026;-56
2021/10/27 20:10:17;;;;;;;3.17;1.77;;;;;;;;;;5133925;27;20027;-56
2021/10/27 20:51:30;;;;;;;;;;;;;;;;;;5091439;27;20426;-51
2021/10/27 20:54:03;;;;;;;2.70;2.28;;;;;;;;;;5125428;27;20336;-57
2021/10/27 20:56:32;;;;;;;3.70;1.92;;;;;;;;;;5122151;27;20098;-50
2021/10/27 21:02:12;;;;;;;3.30;2.10;;;;;;;;;;5122772;27;20080;-49
2021/10/27 21:12:53;;;;;;;3.70;2.13;;;;;;;;;;5113297;28;20034;-49
2021/10/27 21:15:19;;;;;;;2.90;2.10;;;;;;;;;;5113707;27;20011;-51
2021/10/27 21:17:46;;;;;;;4.00;2.03;;;;;;;;;;5112864;28;20053;-49
2021/10/27 21:20:13;;;;;;;7.85;2.33;;;;;;;;;;5127473;27;20012;-51
2021/10/27 21:22:40;;;;;;;3.75;2.10;;;;;;;;;;5121185;27;20065;-50
2021/10/27 21:25:07;;;;;;;5.18;1.85;;;;;;;;;;5119210;27;20026;-54
2021/10/27 21:30:59;;;;;;;3.47;1.70;;;;;;;;;;5112015;28;20638;-51
2021/10/27 21:43:48;;;;;;;3.80;1.92;;;;;;;;;;5115045;27;20050;-50
2021/10/27 21:46:14;;;;;;;3.10;2.00;;;;;;;;;;5116943;27;20094;-49
2021/10/27 21:48:40;;;;;;;2.60;1.60;;;;;;;;;;5115501;27;20495;-51
2021/10/27 21:51:06;;;;;;;5.97;2.42;;;;;;;;;;5116902;27;20039;-54
2021/10/27 21:53:32;;;;;;;3.85;2.13;;;;;;;;;;5116980;27;20011;-53
2021/10/27 21:56:02;;;;;;;2.72;2.03;;;;;;;;;;5116251;27;20045;-55